WETTERDATEN

HEUTE
Time Temp. Taup. r.Fe. Windrich Windstärke Windböe Druck 1h Prec. 24h Prec.
00:03 13.7 9.9 78 331 1.1 1.9 1018.2 0.0000 0.0000
00:13 13.9 10.3 79 325 0.6 1.1 1018.2 0.0000 0.0000
00:23 13.9 10.3 79 349 0.3 1.1 1018.4 0.0000 0.0000
00:33 13.9 10.3 79 336 0.3 1.1 1018.4 0.0000 0.0000
00:43 13.9 10.3 79 14 0.3 0.6 1018.3 0.0000 0.0000
00:54 13.8 10.2 79 45 0.3 0.6 1018.3 0.0000 0.0000
01:04 13.5 9.9 79 14 0.3 0.6 1018.4 0.0000 0.0000
01:13 13.2 9.6 79 45 0.3 0.6 1018.5 0.0000 0.0000
01:23 13 9.4 79 0 0.6 1018.5 0.0000 0.0000
01:34 12.9 9.4 79 18 0.3 0.8 1018.5 0.0000 0.0000
01:44 12.7 9.3 80 13 0.3 0.6 1018.4 0.0000 0.0000
01:54 12.6 9.2 80 90 0.3 0.6 1018.3 0.0000 0.0000
02:04 12.5 9.1 80 45 0.3 0.6 1018.4 0.0000 0.0000
02:14 12.4 9.2 81 12 0.3 0.6 1018.2 0.0000 0.0000
02:24 12.2 9 81 35 0.3 0.6 1018.3 0.0000 0.0000
02:34 12.1 8.9 81 51 0.3 0.3 1018.3 0.0000 0.0000
02:45 11.9 8.7 81 45 0.3 0.6 1018.1 0.0000 0.0000
02:54 11.8 8.6 81 351 0.3 0.8 1018.1 0.0000 0.0000
03:04 11.6 8.5 81 315 0.6 1.1 1018.1 0.0000 0.0000
03:15 11.6 8.6 82 330 0.6 1.4 1018.1 0.0000 0.0000
03:25 11.6 8.6 82 341 0.3 0.8 1018 0.0000 0.0000
03:35 11.6 8.6 82 323 0.3 1.1 1017.9 0.0000 0.0000
03:44 11.6 8.6 82 21 0.3 0.6 1017.9 0.0000 0.0000
03:55 11.7 8.9 83 0 0.3 1017.8 0.0000 0.0000
04:05 11.7 8.9 83 90 0.3 0.6 1017.8 0.0000 0.0000
04:15 11.7 8.9 83 0 0.6 1017.8 0.0000 0.0000
04:25 11.5 8.7 83 50 0.3 0.6 1017.8 0.0000 0.0000
04:35 11.3 8.5 83 50 0.3 0.6 1017.8 0.0000 0.0000
04:45 11.1 8.3 83 90 0.3 0.6 1017.9 0.0000 0.0000
04:55 11 8.2 83 90 0.3 0.6 1017.9 0.0000 0.0000
05:06 11 8.2 83 0 0.3 1017.9 0.0000 0.0000
05:16 10.9 8.1 83 90 0.3 0.6 1017.9 0.0000 0.0000
05:25 10.9 8.1 83 56 0.3 0.6 1017.9 0.0000 0.0000
05:36 10.7 7.9 83 90 0.3 0.6 1017.8 0.0000 0.0000
05:46 10.5 7.9 84 56 0.3 0.6 1017.8 0.0000 0.0000
05:56 10.5 7.9 84 29 0.3 0.6 1017.7 0.0000 0.0000
06:06 10.6 8 84 38 0.3 0.6 1017.6 0.0000 0.0000
06:16 11 8.6 85 45 0.3 0.6 1017.5 0.0000 0.0000
06:26 11.4 9 85 90 0.3 0.6 1017.6 0.0000 0.0000
06:36 11.8 9.4 85 45 0.3 0.6 1017.5 0.0000 0.0000
06:46 12 9.6 85 45 0.3 0.6 1017.6 0.0000 0.0000
06:57 12.4 10 85 18 0.3 0.6 1017.7 0.0000 0.0000
07:06 13 10.7 86 320 0.3 0.8 1017.8 0.0000 0.0000
07:16 13.8 11.5 86 270 0.3 0.6 1017.8 0.0000 0.0000
07:27 14.8 12.5 86 330 0.3 0.8 1017.9 0.0000 0.0000
07:37 15.2 12.7 85 0 0.6 1017.9 0.0000 0.0000
07:47 16.1 13.6 85 315 0.3 0.8 1017.9 0.0000 0.0000
07:57 16.8 14.1 84 333 0.3 0.6 1017.8 0.0000 0.0000
08:08 17.5 14.4 82 341 0.3 0.8 1017.8 0.0000 0.0000
08:17 18.1 14.8 81 270 0.3 0.8 1017.7 0.0000 0.0000
08:27 18.7 15 79 270 0.3 0.6 1017.6 0.0000 0.0000
08:38 19.2 15.1 77 324 0.3 0.8 1017.6 0.0000 0.0000
08:48 19.7 15.1 75 90 0.3 0.8 1017.5 0.0000 0.0000
08:58 20.4 15.4 73 213 0.3 0.6 1017.6 0.0000 0.0000
09:07 20.8 15.1 70 270 0.3 1.1 1017.5 0.0000 0.0000
09:18 21.2 15.1 68 325 0.6 1.1 1017.4 0.0000 0.0000
09:28 21.4 14.8 66 135 0.3 0.8 1017.5 0.0000 0.0000
09:38 21.6 14.5 64 26 0.3 0.8 1017.4 0.0000 0.0000
09:48 22.1 15 64 270 0.3 1.1 1017.3 0.0000 0.0000
09:58 22.3 14.9 63 270 0.3 1.4 1017.3 0.0000 0.0000
10:08 22.5 14.9 62 270 0.3 1.4 1017.3 0.0000 0.0000
10:18 22.9 15 61 225 0.3 0.8 1017.2 0.0000 0.0000
10:29 23.2 15.3 61 270 0.3 1.1 1017.3 0.0000 0.0000
10:39 23.4 14.7 58 230 0.6 1.4 1017.2 0.0000 0.0000
10:48 23.1 14.4 58 270 0.6 1.9 1017.1 0.0000 0.0000
10:59 23.4 14.9 59 281 0.8 2.2 1017.1 0.0000 0.0000
11:49 23.7 13.8 54 225 0.6 1.4 1016.6 0.0000 0.0000
11:59 24 13.5 52 239 0.6 1.7 1016.5 0.0000 0.0000
12:39 25.2 13.1 47 243 0.6 1.9 1016 0.0000 0.0000
12:50 25.4 13.3 47 254 0.6 1.7 1015.9 0.0000 0.0000
13:25 25.6 13.5 47 286 1.4 3.1 1015.5 0.0000 0.0000
13:35 25.8 13 45 215 0.6 1.7 1015.5 0.0000 0.0000
13:45 25.6 12.5 44 198 0.6 2.2 1015.5 0.0000 0.0000
13:55 25.6 12.1 43 220 0.3 0.8 1015.3 0.0000 0.0000
14:06 26.1 13.6 46 280 1.1 2.5 1015.4 0.0000 0.0000
14:16 26.1 12.9 44 270 0.3 1.1 1015.3 0.0000 0.0000
14:25 26.4 13.9 46 270 0.6 1.9 1015.3 0.0000 0.0000
14:33 26.8 13.2 43 270 0.6 2.2 1015.2 0.0000 0.0000
14:43 27.1 13.5 43 270 0.6 1.4 1015.1 0.0000 0.0000
14:53 27.3 13.6 43 306 0.8 2.8 1015.1 0.0000 0.0000
15:03 27.2 13.5 43 312 0.8 2.5 1014.8 0.0000 0.0000
15:13 26.9 12.9 42 29 0.3 0.8 1014.8 0.0000 0.0000
15:23 26.9 13.6 44 270 0.6 1.7 1014.6 0.0000 0.0000
15:34 27.4 13.4 42 243 0.6 1.7 1014.5 0.0000 0.0000
15:44 27.7 13.6 42 270 0.6 1.4 1014.5 0.0000 0.0000
15:54 27.9 13.1 40 138 1.4 2.8 1014.5 0.0000 0.0000
16:04 27.7 12.9 40 124 0.8 2.2 1014.3 0.0000 0.0000
16:14 27.6 13.2 41 317 1.7 4.2 1014.1 0.0000 0.0000
16:24 26.9 12.5 41 317 0.8 2.2 1014 0.0000 0.0000
16:34 27.2 12.8 41 303 0.8 2.2 1014 0.0000 0.0000
16:45 27.4 13.4 42 324 1.1 2.5 1014 0.0000 0.0000
16:54 27.4 13 41 310 0.6 1.9 1013.8 0.0000 0.0000
17:04 27.6 13.2 41 332 0.8 2.2 1013.8 0.0000 0.0000
17:15 27.4 12.6 40 40 0.6 1.4 1013.7 0.0000 0.0000
17:25 27.5 13.1 41 234 0.3 0.8 1013.6 0.0000 0.0000
17:35 27.4 13.4 42 322 0.6 1.9 1013.6 0.0000 0.0000
17:44 27.4 13 41 304 0.8 2.5 1013.6 0.0000 0.0000
18:10 26.1 12.2 42 17 0.8 1.7 1013.3 0.0000 0.0000
18:20 25.6 12.1 43 334 0.6 1.7 1013.3 0.0000 0.0000
18:31 25.5 12 43 343 0.3 1.1 1013.3 0.0000 0.0000
18:40 25.5 12 43 26 0.6 1.4 1013.3 0.0000 0.0000
18:50 25.4 11.9 43 108 0.6 1.4 1013.2 0.0000 0.0000
19:00 25.4 11.9 43 90 0.8 1.4 1013.2 0.0000 0.0000
19:16 24.8 11.7 44 11 0.3 0.8 1013.4 0.0000 0.0000
19:26 24.6 11.6 44 36 0.3 0.8 1013.4 0.0000 0.0000
19:35 24.3 11.6 45 118 0.8 1.7 1013.2 0.0000 0.0000
19:46 24.1 11.8 46 70 0.6 1.4 1013.3 0.0000 0.0000

TAGESSTATISTIK

2024-07-25
TEMPERATUR
MITTEL
19.2
MAXIMUM
27.9
15:54
MINIMUM
10.5
05:46
LUFTDRUCK
MITTEL
1016.5
MAXIMUM
1018.5
01:13
MINIMUM
1013.2
18:50
TAUPUNKT
MITTEL
11.7
MAXIMUM
15.4
08:58
MINIMUM
7.9
05:36
FEUCHTIGKEIT
MITTEL
65
MAXIMUM
86
07:06
MINIMUM
40
15:54
WINDSTÄRKE
MITTEL
0.5
MAXIMUM
1.7
16:14
WINDBÖE
MITTEL
1.2
MAXIMUM
4.2
16:14
WINDRICHTUNG
VORHERRSCHENDE
NW
21.5%
N
13.1
NO
18.7
O
10.3
SO
3.7
S
0.9
SW
9.3
W
17.8
NW
21.5
NIEDERSCHLAG
REGEN STUNDE
0.0
REGEN TAG
0.0
TEMPERATUR (°C)
MINIMUM
10.5
MAXIMUM
27.9
MITTEL
19.2
LUFTDRUCK (hpa)
MINIMUM
1013.2
MAXIMUM
1018.5
MITTEL
1016.5
MESSGERÄT